Standon, United Kingdom
Current Conditions -  °F | °C
As of 9:50 AM on Sunday 26 Oct 2014 (Local Time) from EGOS Reporting Station
Broken Clouds Broken Clouds  
Wind Chill: 55°   Ceiling: 4400
Heat Index: 55°   Visibility: 6mi
Dew Point: 46°   Wind: 16mph
Humidity: 72%   Direction: 190°S
Pressure: 30"   Gusts: NA
Location:  52.92°N, 2.28°W
Report Text: EGOS 260850Z AUTO 19014KT 9999 BKN044/// 13/08 Q1016
Loading
Personal Weather Stations






























Interactive Weather Map
Tropical Storm Tracking
New forecast layout! Learn more

10-Day Weather Forecast

Advertisements
Track Severe Weather on mobile